Time;durP1;ratioP1;P1;durP2;ratioP2;P2;SDS_P1;SDS_P2;PMS_P1;PMS_P2;Temp;Humidity;BMP_temperature;BMP_pressure;BME280_temperature;BME280_humidity;BME280_pressure;Samples;Min_cycle;Max_cycle;Signal;HPM_P1;HPM_P2
2023/01/16 00:01:39;;;;;;;4.40;1.40;;;;;;;4.41;70.90;97450.38;4890086;29;20243;-61
2023/01/16 00:04:06;;;;;;;4.70;0.90;;;;;;;4.32;71.17;97438.31;4892631;29;20713;-62
2023/01/16 00:06:33;;;;;;;2.53;0.80;;;;;;;4.34;71.86;97433.81;4889257;29;20567;-60
2023/01/16 00:09:03;;;;;;;1.90;0.70;;;;;;;4.24;72.98;97436.41;4892300;29;20314;-61
2023/01/16 00:11:29;;;;;;;2.30;0.60;;;;;;;4.18;73.02;97426.66;4893337;29;20319;-62
2023/01/16 00:13:56;;;;;;;2.33;0.60;;;;;;;4.22;72.75;97422.00;4891390;29;20289;-62
2023/01/16 00:16:23;;;;;;;2.20;0.70;;;;;;;4.29;71.79;97410.97;4891228;29;20224;-62
2023/01/16 00:18:49;;;;;;;5.57;0.80;;;;;;;4.27;72.90;97414.66;4893438;28;20748;-60
2023/01/16 00:21:17;;;;;;;3.33;0.90;;;;;;;4.48;71.76;97405.91;4888572;29;20228;-61
2023/01/16 00:23:43;;;;;;;2.33;0.50;;;;;;;4.35;71.20;97390.69;4890623;28;20250;-61
2023/01/16 00:26:12;;;;;;;2.73;0.60;;;;;;;4.37;70.69;97392.19;4894123;29;20239;-61
2023/01/16 00:28:38;;;;;;;3.90;0.90;;;;;;;4.40;70.98;97388.50;4890977;29;20236;-61
2023/01/16 00:31:05;;;;;;;1.57;0.60;;;;;;;4.27;71.38;97383.66;4891754;29;20251;-61
2023/01/16 00:33:33;;;;;;;4.43;0.50;;;;;;;4.28;71.93;97380.91;4888946;29;20233;-61
2023/01/16 00:36:00;;;;;;;7.50;0.73;;;;;;;4.27;72.14;97360.41;4890971;29;20638;-61
2023/01/16 00:38:26;;;;;;;4.03;1.13;;;;;;;4.31;70.79;97356.59;4894708;29;20283;-61
2023/01/16 00:40:53;;;;;;;3.30;0.80;;;;;;;4.35;71.40;97362.28;4892214;29;20235;-61
2023/01/16 00:43:21;;;;;;;3.63;0.60;;;;;;;4.25;71.60;97349.41;4891150;29;20225;-61
2023/01/16 00:45:47;;;;;;;4.70;0.60;;;;;;;4.23;71.55;97336.66;4892293;29;20250;-61
2023/01/16 00:48:14;;;;;;;2.47;0.80;;;;;;;4.24;72.76;97330.50;4891125;29;20307;-61
2023/01/16 00:50:41;;;;;;;5.03;0.60;;;;;;;4.31;72.71;97332.50;4888991;29;20390;-61
2023/01/16 00:53:07;;;;;;;4.87;0.83;;;;;;;4.28;70.64;97334.44;4891175;29;20263;-61
2023/01/16 00:55:35;;;;;;;3.90;0.70;;;;;;;4.37;71.08;97327.59;4889511;29;20259;-62
2023/01/16 00:58:02;;;;;;;2.83;0.70;;;;;;;4.29;71.76;97320.56;4893251;29;20235;-61
2023/01/16 01:00:29;;;;;;;5.50;0.60;;;;;;;4.30;71.10;97334.31;4889039;29;20242;-61
2023/01/16 01:02:56;;;;;;;3.60;0.80;;;;;;;4.35;69.90;97315.78;4892683;29;20246;-61
2023/01/16 01:05:23;;;;;;;11.30;2.37;;;;;;;4.39;70.94;97323.09;4889146;29;20786;-61
2023/01/16 01:07:50;;;;;;;7.93;0.70;;;;;;;4.43;70.70;97305.53;4892975;29;20231;-61
2023/01/16 01:10:17;;;;;;;3.47;0.83;;;;;;;4.46;70.47;97300.06;4889871;29;20291;-61
2023/01/16 01:12:44;;;;;;;7.40;0.70;;;;;;;4.38;70.78;97297.41;4891246;29;20257;-61
2023/01/16 01:15:11;;;;;;;4.53;0.80;;;;;;;4.36;71.67;97304.47;4891017;29;20309;-61
2023/01/16 01:17:39;;;;;;;4.93;0.70;;;;;;;4.37;71.15;97303.53;4890468;29;20729;-61
2023/01/16 01:20:07;;;;;;;2.23;0.50;;;;;;;4.35;71.00;97308.03;4891036;29;20937;-61
2023/01/16 01:22:33;;;;;;;4.43;1.20;;;;;;;4.29;72.88;97301.66;4891552;29;20239;-62
2023/01/16 01:25:00;;;;;;;4.57;0.80;;;;;;;4.40;70.77;97288.56;4889640;29;20315;-61
2023/01/16 01:27:27;;;;;;;4.30;0.73;;;;;;;4.40;71.50;97285.16;4887862;29;20697;-61
2023/01/16 01:29:53;;;;;;;2.50;0.57;;;;;;;4.35;71.01;97266.69;4892094;29;20369;-61
2023/01/16 01:32:20;;;;;;;1.70;0.60;;;;;;;4.27;71.01;97270.81;4890340;29;20705;-61
2023/01/16 01:34:48;;;;;;;6.20;0.90;;;;;;;4.26;71.80;97261.44;4890022;29;20233;-61
2023/01/16 01:37:14;;;;;;;2.17;0.50;;;;;;;4.25;72.48;97251.25;4890592;29;20240;-61
2023/01/16 01:39:41;;;;;;;5.17;0.70;;;;;;;4.19;72.82;97244.09;4886876;29;20605;-61
2023/01/16 01:44:56;;;;;;;2.07;0.97;;;;;;;4.06;73.24;97240.06;4889857;29;20787;-61
2023/01/16 01:47:27;;;;;;;5.30;1.47;;;;;;;4.04;73.02;97244.56;4886881;29;20228;-61
2023/01/16 01:50:00;;;;;;;4.90;0.70;;;;;;;4.14;73.42;97236.78;4890825;29;20596;-60
2023/01/16 01:52:28;;;;;;;3.43;0.60;;;;;;;4.03;73.61;97232.59;4888117;29;20232;-61
2023/01/16 01:55:00;;;;;;;4.13;0.70;;;;;;;3.94;74.00;97218.81;4890649;29;20244;-61
2023/01/16 01:57:29;;;;;;;2.83;1.03;;;;;;;3.94;73.49;97212.81;4889148;29;20771;-59
2023/01/16 02:00:01;;;;;;;6.33;0.80;;;;;;;3.99;73.46;97195.94;4889976;29;20236;-61
2023/01/16 02:02:43;;;;;;;3.43;0.70;;;;;;;4.04;73.33;97200.66;4884835;29;20740;-61
2023/01/16 02:05:17;;;;;;;3.90;0.80;;;;;;;3.91;74.42;97182.94;4889626;29;20232;-61
2023/01/16 02:07:45;;;;;;;3.00;0.90;;;;;;;3.93;74.72;97181.03;4887361;29;20238;-61
2023/01/16 02:10:20;;;;;;;2.40;0.87;;;;;;;3.94;73.50;97185.25;4889196;29;20247;-61
2023/01/16 02:12:47;;;;;;;3.90;0.60;;;;;;;4.01;73.78;97174.34;4885728;29;20239;-61
2023/01/16 02:15:14;;;;;;;4.90;0.90;;;;;;;4.08;73.67;97170.22;4889857;29;20312;-61
2023/01/16 02:20:35;;;;;;;2.27;0.80;;;;;;;4.12;74.07;97148.31;4885576;29;20638;-61
2023/01/16 02:23:32;;;;;;;3.97;0.67;;;;;;;4.26;72.38;97145.19;4889630;29;20236;-61
2023/01/16 02:26:33;;;;;;;10.43;1.10;;;;;;;4.37;72.27;97143.34;4888945;29;20692;-62
2023/01/16 02:29:57;;;;;;;3.00;0.87;;;;;;;4.45;70.85;97130.50;4887056;29;20235;-61
2023/01/16 02:32:36;;;;;;;5.40;0.90;;;;;;;4.49;71.39;97131.84;4841730;29;20345;-62
2023/01/16 02:35:22;;;;;;;5.47;1.00;;;;;;;4.61;70.41;97116.91;4862265;29;20293;-61
2023/01/16 02:37:53;;;;;;;5.87;0.90;;;;;;;4.61;70.73;97119.50;4882425;29;20244;-60
2023/01/16 02:40:36;;;;;;;2.83;0.53;;;;;;;4.62;70.84;97102.22;4888431;29;20216;-62
2023/01/16 02:43:15;;;;;;;3.83;0.63;;;;;;;4.65;70.97;97104.50;4889049;29;21013;-61
2023/01/16 02:45:48;;;;;;;4.87;0.70;;;;;;;4.67;71.07;97093.06;4891623;29;20252;-61
2023/01/16 02:48:27;;;;;;;4.43;0.90;;;;;;;4.70;69.70;97079.84;4910237;29;20272;-61
2023/01/16 02:51:03;;;;;;;3.70;1.13;;;;;;;4.73;69.66;97069.19;4890763;29;20235;-62
2023/01/16 02:53:35;;;;;;;4.17;0.70;;;;;;;4.69;70.28;97065.28;4888482;29;20233;-60
2023/01/16 02:56:08;;;;;;;2.73;0.80;;;;;;;4.60;70.41;97063.59;4891151;29;20236;-61
2023/01/16 02:58:38;;;;;;;4.57;0.80;;;;;;;4.52;69.46;97050.63;4884126;28;20231;-61
2023/01/16 03:01:05;;;;;;;4.37;0.57;;;;;;;4.43;70.42;97044.56;4888827;29;20231;-60
2023/01/16 03:03:41;;;;;;;8.20;0.93;;;;;;;4.33;72.83;97038.69;4888663;29;20227;-62
2023/01/16 03:06:23;;;;;;;3.07;0.67;;;;;;;4.25;71.67;97026.53;4890881;28;20223;-61
2023/01/16 03:08:59;;;;;;;3.40;0.50;;;;;;;4.28;71.71;97016.69;4888272;29;20258;-60
2023/01/16 03:11:28;;;;;;;4.43;0.53;;;;;;;4.35;71.47;97013.53;4885288;28;20235;-60
2023/01/16 03:14:31;;;;;;;3.47;0.43;;;;;;;4.47;70.94;97007.16;4887908;29;20224;-61
2023/01/16 03:17:11;;;;;;;3.63;0.53;;;;;;;4.52;71.66;96989.41;4896891;29;20242;-60
2023/01/16 03:19:50;;;;;;;9.50;1.20;;;;;;;4.51;71.61;96982.63;4900173;29;20306;-61
2023/01/16 03:22:22;;;;;;;3.50;0.73;;;;;;;4.55;70.83;96978.78;4901236;29;20451;-61
2023/01/16 03:25:00;;;;;;;2.77;0.50;;;;;;;4.63;70.83;96972.03;4901245;29;20327;-61
2023/01/16 03:27:38;;;;;;;3.00;0.40;;;;;;;4.61;70.34;96963.63;4904723;29;20699;-61
2023/01/16 03:30:12;;;;;;;1.80;0.50;;;;;;;4.65;71.06;96964.94;4907589;29;20232;-61
2023/01/16 03:32:44;;;;;;;5.77;0.70;;;;;;;4.64;71.10;96955.56;4906520;29;20234;-61
2023/01/16 03:35:17;;;;;;;4.23;0.77;;;;;;;4.66;70.72;96944.13;4910117;29;20821;-61
2023/01/16 03:37:48;;;;;;;3.40;0.87;;;;;;;4.65;70.75;96937.31;4908428;29;20318;-61
2023/01/16 03:40:19;;;;;;;4.93;0.90;;;;;;;4.68;70.37;96921.50;4910252;29;20303;-61
2023/01/16 03:42:53;;;;;;;4.87;0.93;;;;;;;4.71;70.46;96921.19;4907798;29;20645;-61
2023/01/16 03:45:25;;;;;;;2.50;0.70;;;;;;;4.66;69.82;96909.69;4908947;29;20232;-61
2023/01/16 03:48:00;;;;;;;2.63;0.50;;;;;;;4.63;70.59;96907.41;4909309;29;20287;-61
2023/01/16 03:50:29;;;;;;;3.97;0.80;;;;;;;4.56;70.75;96887.38;4908191;29;20271;-61
2023/01/16 03:53:01;;;;;;;3.07;0.53;;;;;;;4.45;70.55;96884.25;4910622;29;20250;-61
2023/01/16 03:55:33;;;;;;;2.40;0.50;;;;;;;4.31;70.89;96880.47;4907268;29;20696;-61
2023/01/16 03:58:05;;;;;;;4.97;0.70;;;;;;;4.21;71.29;96867.69;4910805;29;20236;-61
2023/01/16 04:04:00;;;;;;;2.60;0.60;;;;;;;3.98;72.65;96848.38;5647464;23;20240;-60
2023/01/16 04:06:34;;;;;;;2.33;0.50;;;;;;;3.91;74.23;96842.19;4892201;29;20779;-60
2023/01/16 04:09:05;;;;;;;1.83;0.97;;;;;;;3.97;72.86;96838.19;4899699;29;20239;-60
2023/01/16 04:11:34;;;;;;;3.27;0.67;;;;;;;3.86;73.81;96821.19;4900861;29;20228;-60
2023/01/16 04:14:04;;;;;;;2.17;0.60;;;;;;;3.92;74.12;96814.59;4896906;29;20232;-60
2023/01/16 04:16:31;;;;;;;4.20;0.50;;;;;;;3.89;74.29;96802.81;4886820;29;20283;-60
2023/01/16 04:18:59;;;;;;;1.87;0.50;;;;;;;3.83;74.26;96809.38;4893298;29;20304;-59
2023/01/16 04:21:31;;;;;;;7.65;0.90;;;;;;;3.95;73.57;96791.06;4890803;29;20800;-59
2023/01/16 04:23:59;;;;;;;4.50;0.70;;;;;;;3.96;73.87;96782.34;4893142;29;20275;-60
2023/01/16 04:26:26;;;;;;;3.10;0.80;;;;;;;3.99;72.70;96777.69;4893885;29;20228;-59
2023/01/16 04:28:54;;;;;;;9.17;0.60;;;;;;;3.91;73.77;96759.59;4895037;29;20301;-59
2023/01/16 04:31:23;;;;;;;3.07;0.60;;;;;;;3.91;72.52;96751.03;5096490;23;20310;-54
2023/01/16 04:33:49;;;;;;;2.43;0.53;;;;;;;3.98;72.51;96741.69;4907435;29;20235;-53
2023/01/16 04:36:16;;;;;;;6.23;0.70;;;;;;;4.01;72.89;96736.22;4907737;29;20250;-56
2023/01/16 04:38:44;;;;;;;2.20;0.33;;;;;;;3.94;72.03;96720.56;4906085;29;20629;-57
2023/01/16 04:41:10;;;;;;;4.03;0.70;;;;;;;3.98;73.06;96713.31;4902114;29;20287;-55
2023/01/16 04:43:37;;;;;;;11.33;3.63;;;;;;;3.92;72.69;96701.00;4881934;29;20237;-57
2023/01/16 04:46:03;;;;;;;46.23;18.97;;;;;;;3.84;72.54;96699.22;4881460;29;20702;-57
2023/01/16 04:48:30;;;;;;;15.13;11.30;;;;;;;4.06;71.80;96689.28;4878640;29;20869;-57
2023/01/16 04:50:56;;;;;;;61.77;37.10;;;;;;;3.99;72.82;96684.75;4887168;29;20289;-57
2023/01/16 04:53:23;;;;;;;41.47;25.03;;;;;;;3.86;72.83;96658.59;4877269;29;20233;-57
2023/01/16 04:55:51;;;;;;;77.70;40.97;;;;;;;3.79;73.70;96662.75;4882151;29;20236;-56
2023/01/16 04:58:17;;;;;;;43.93;26.30;;;;;;;3.77;72.18;96641.47;4878195;29;20594;-56
2023/01/16 05:00:44;;;;;;;6.90;4.10;;;;;;;3.93;72.20;96638.94;4879525;29;20245;-54
2023/01/16 05:03:10;;;;;;;13.80;9.07;;;;;;;4.00;72.11;96631.34;4882114;29;20252;-56
2023/01/16 05:05:39;;;;;;;5.93;3.67;;;;;;;4.05;71.09;96623.94;4891463;29;20247;-54
2023/01/16 05:08:18;;;;;;;5.20;1.73;;;;;;;4.07;70.64;96611.66;4879545;29;20231;-57
2023/01/16 05:10:44;;;;;;;5.27;2.57;;;;;;;3.98;71.49;96599.72;4877628;29;20319;-56
2023/01/16 05:13:13;;;;;;;3.83;1.13;;;;;;;3.94;71.86;96595.84;4882553;29;20293;-56
2023/01/16 05:15:39;;;;;;;2.77;1.20;;;;;;;3.93;71.92;96592.47;4879452;29;20303;-56
2023/01/16 05:18:06;;;;;;;1.93;0.67;;;;;;;4.16;69.95;96581.53;4883037;29;20654;-54
2023/01/16 05:20:32;;;;;;;1.80;0.60;;;;;;;4.12;70.21;96573.28;4879975;29;20479;-56
2023/01/16 05:22:59;;;;;;;1.00;0.37;;;;;;;4.26;69.06;96563.25;4880072;29;20308;-56
2023/01/16 05:25:25;;;;;;;3.40;0.60;;;;;;;4.20;69.49;96554.41;4877933;29;20243;-56
2023/01/16 05:27:52;;;;;;;4.40;0.70;;;;;;;4.20;68.96;96554.41;4880819;29;20232;-57
2023/01/16 05:30:20;;;;;;;3.43;0.40;;;;;;;4.32;68.85;96529.03;4877481;29;20689;-57
2023/01/16 05:32:47;;;;;;;1.27;0.70;;;;;;;4.57;68.02;96521.25;4880650;29;20298;-56
2023/01/16 05:35:15;;;;;;;3.20;0.70;;;;;;;4.54;68.33;96511.25;4887734;29;20558;-57
2023/01/16 05:37:42;;;;;;;2.63;0.50;;;;;;;4.40;69.08;96503.22;4879367;29;20240;-57
2023/01/16 05:40:10;;;;;;;1.40;0.60;;;;;;;4.36;68.76;96495.94;4881296;29;20297;-57
2023/01/16 05:42:37;;;;;;;0.70;0.30;;;;;;;4.40;69.23;96485.13;4878037;29;20283;-57
2023/01/16 05:45:04;;;;;;;0.97;0.30;;;;;;;4.42;69.09;96472.03;4879716;29;20270;-57
2023/01/16 05:47:32;;;;;;;4.40;0.47;;;;;;;4.37;68.56;96454.47;4876477;29;20235;-56
2023/01/16 05:49:59;;;;;;;1.43;0.50;;;;;;;4.58;67.91;96433.22;4882442;29;20236;-55
2023/01/16 05:52:26;;;;;;;1.83;0.50;;;;;;;4.60;67.00;96447.75;4878443;29;20233;-54
2023/01/16 05:54:53;;;;;;;3.10;1.10;;;;;;;4.53;66.86;96438.09;4880042;29;20757;-55
2023/01/16 05:57:20;;;;;;;2.97;0.50;;;;;;;4.55;67.41;96438.72;4877254;29;20281;-55
2023/01/16 05:59:48;;;;;;;2.93;1.00;;;;;;;4.53;66.53;96421.81;4874222;29;20769;-56
2023/01/16 06:02:15;;;;;;;2.33;0.60;;;;;;;4.55;67.00;96404.34;4877301;29;20754;-56
2023/01/16 06:04:43;;;;;;;5.47;0.70;;;;;;;4.55;66.56;96409.53;4877090;29;20253;-56
2023/01/16 06:07:09;;;;;;;1.47;0.80;;;;;;;4.54;66.36;96387.25;4879382;29;20237;-56
2023/01/16 06:09:36;;;;;;;3.63;0.90;;;;;;;4.52;67.50;96387.41;4877483;29;20336;-54
2023/01/16 06:12:03;;;;;;;2.33;0.73;;;;;;;4.57;65.83;96381.75;4880558;29;20249;-56
2023/01/16 06:14:29;;;;;;;2.80;0.90;;;;;;;4.53;66.98;96378.66;4878890;29;20237;-56
2023/01/16 06:16:56;;;;;;;2.10;0.53;;;;;;;4.72;64.06;96363.72;4880153;29;20244;-57
2023/01/16 06:19:22;;;;;;;2.73;0.23;;;;;;;4.77;63.94;96363.25;4877079;29;20243;-56
2023/01/16 06:21:50;;;;;;;2.20;0.60;;;;;;;4.83;63.47;96355.59;4893768;29;20605;-55
2023/01/16 06:24:17;;;;;;;2.13;0.73;;;;;;;4.81;64.27;96356.72;4876803;29;20292;-57
2023/01/16 06:26:43;;;;;;;4.13;0.40;;;;;;;4.83;63.92;96354.78;4879089;29;20303;-56
2023/01/16 06:29:10;;;;;;;1.83;0.50;;;;;;;4.83;63.56;96334.09;4881149;29;20277;-57
2023/01/16 06:31:37;;;;;;;2.67;0.57;;;;;;;4.84;62.01;96336.53;4876021;29;20252;-56
2023/01/16 06:34:04;;;;;;;3.03;0.67;;;;;;;5.02;60.84;96327.69;4876530;29;20701;-55
2023/01/16 06:36:30;;;;;;;3.23;0.50;;;;;;;4.89;62.37;96323.06;4875553;29;20757;-56
2023/01/16 06:38:58;;;;;;;10.97;4.70;;;;;;;4.83;62.54;96324.56;4881439;29;20727;-55
2023/01/16 06:41:24;;;;;;;1.13;0.47;;;;;;;4.87;62.59;96320.69;4876511;29;20705;-56
2023/01/16 06:43:51;;;;;;;1.83;0.50;;;;;;;4.83;61.79;96306.47;4880041;29;20590;-57
2023/01/16 06:46:18;;;;;;;3.87;0.40;;;;;;;4.86;61.00;96297.56;4878907;29;20245;-56
2023/01/16 06:48:44;;;;;;;2.90;0.50;;;;;;;4.96;59.40;96298.13;4878330;29;20243;-57
2023/01/16 06:51:11;;;;;;;1.97;0.70;;;;;;;5.03;59.62;96283.53;4877952;29;20232;-57
2023/01/16 06:53:38;;;;;;;5.70;0.27;;;;;;;5.28;59.42;96288.53;4877669;29;20232;-55
2023/01/16 06:56:06;;;;;;;1.60;0.70;;;;;;;5.23;58.50;96277.09;4879684;29;20245;-56
2023/01/16 06:58:33;;;;;;;2.27;0.30;;;;;;;5.25;58.34;96269.97;4879382;29;20240;-55
2023/01/16 07:00:59;;;;;;;0.63;0.30;;;;;;;5.51;56.21;96261.81;4881164;29;20313;-54
2023/01/16 07:03:26;;;;;;;2.63;0.40;;;;;;;5.55;58.05;96272.59;4883376;29;20731;-55
2023/01/16 07:05:52;;;;;;;0.40;0.30;;;;;;;5.64;56.15;96263.75;4883263;29;20641;-55
2023/01/16 07:08:19;;;;;;;0.93;0.20;;;;;;;5.76;54.04;96254.56;4878810;29;20233;-55
2023/01/16 07:10:45;;;;;;;2.63;0.90;;;;;;;5.72;55.27;96263.69;4882352;29;20237;-55
2023/01/16 07:13:13;;;;;;;0.83;0.40;;;;;;;5.74;54.11;96256.53;4881028;29;20678;-54
2023/01/16 07:24:01;;;;;;;1.83;0.53;;;;;;;6.02;52.04;96214.50;4878479;29;20351;-53
2023/01/16 07:26:28;;;;;;;1.30;0.40;;;;;;;6.05;53.28;96211.53;4877857;29;20244;-53
2023/01/16 07:28:57;;;;;;;1.33;0.70;;;;;;;6.04;52.93;96203.94;4880556;29;20233;-54
2023/01/16 07:31:25;;;;;;;1.80;0.50;;;;;;;5.99;53.00;96214.84;4881114;29;20554;-55
2023/01/16 07:33:51;;;;;;;0.57;0.30;;;;;;;6.04;52.09;96186.63;4882341;29;20240;-53
2023/01/16 07:36:18;;;;;;;0.40;0.30;;;;;;;6.09;52.10;96180.91;4878141;29;20233;-54
2023/01/16 07:38:45;;;;;;;1.70;0.30;;;;;;;6.25;51.53;96181.66;4883143;29;20232;-54
2023/01/16 07:41:11;;;;;;;0.83;0.40;;;;;;;6.27;51.71;96190.03;4881796;29;20244;-54
2023/01/16 07:43:38;;;;;;;3.33;0.50;;;;;;;6.28;51.15;96187.28;4878446;29;20288;-53
2023/01/16 07:46:07;;;;;;;1.60;0.77;;;;;;;6.29;50.45;96185.47;4882426;29;20241;-55
2023/01/16 07:48:34;;;;;;;4.20;1.33;;;;;;;6.36;50.86;96194.13;4881568;29;20235;-54
2023/01/16 07:51:01;;;;;;;0.90;0.30;;;;;;;6.39;50.75;96180.00;4881878;29;20232;-54
2023/01/16 07:53:29;;;;;;;2.90;0.20;;;;;;;6.41;50.40;96180.59;4878461;29;20232;-54
2023/01/16 07:55:58;;;;;;;1.70;0.40;;;;;;;6.48;49.88;96164.16;4881410;29;20285;-54
2023/01/16 07:58:25;;;;;;;0.77;0.50;;;;;;;6.47;50.29;96172.91;4880544;29;20231;-54
2023/01/16 08:00:52;;;;;;;0.70;0.30;;;;;;;6.54;49.86;96154.81;4882293;29;20241;-53
2023/01/16 08:03:21;;;;;;;0.60;0.40;;;;;;;6.55;49.88;96158.22;4881471;29;20261;-53
2023/01/16 08:05:49;;;;;;;1.13;0.20;;;;;;;6.53;49.41;96167.97;4881289;29;20232;-54
2023/01/16 08:08:18;;;;;;;2.77;0.90;;;;;;;6.54;49.53;96144.44;4880045;29;20239;-54
2023/01/16 08:10:44;;;;;;;1.70;0.50;;;;;;;6.63;49.21;96127.78;4877466;29;20232;-54
2023/01/16 08:13:11;;;;;;;0.63;0.40;;;;;;;6.62;49.21;96136.53;4876600;29;20233;-52
2023/01/16 08:15:38;;;;;;;1.77;0.70;;;;;;;6.65;48.85;96125.00;4878328;29;20241;-53
2023/01/16 08:18:04;;;;;;;1.77;0.80;;;;;;;6.65;49.06;96125.81;4881427;29;20248;-52
2023/01/16 08:20:32;;;;;;;6.53;2.60;;;;;;;6.65;49.18;96132.78;4879783;29;20233;-52
2023/01/16 08:23:00;;;;;;;1.60;0.90;;;;;;;6.70;49.00;96127.03;4881790;29;20241;-52
2023/01/16 08:25:26;;;;;;;5.97;2.93;;;;;;;6.71;49.15;96133.81;4878712;29;20318;-52
2023/01/16 08:27:53;;;;;;;1.07;0.60;;;;;;;6.68;49.70;96114.28;4883591;29;20237;-54
2023/01/16 08:30:19;;;;;;;0.23;0.10;;;;;;;6.72;50.53;96135.41;4877235;29;20236;-53
2023/01/16 08:32:46;;;;;;;1.30;0.30;;;;;;;6.65;49.94;96115.44;4877347;29;20312;-53
2023/01/16 08:35:13;;;;;;;0.60;0.23;;;;;;;6.66;50.46;96116.25;4894856;29;20248;-55
2023/01/16 08:37:48;;;;;;;0.90;0.40;;;;;;;6.67;51.58;96101.47;4877514;29;20233;-55
2023/01/16 08:40:15;;;;;;;2.03;0.37;;;;;;;6.57;52.07;96097.44;4879346;29;20236;-53
2023/01/16 08:53:43;;;;;;;1.00;0.47;;;;;;;6.52;53.62;96078.25;4876423;29;20244;-54
2023/01/16 08:56:10;;;;;;;2.77;0.20;;;;;;;6.49;54.69;96058.69;4882169;29;20233;-54
2023/01/16 08:58:37;;;;;;;1.87;0.30;;;;;;;6.51;55.33;96077.44;4877884;29;20239;-54
2023/01/16 09:01:03;;;;;;;1.37;0.37;;;;;;;6.54;54.97;96055.53;4880012;29;20245;-55
2023/01/16 09:03:30;;;;;;;1.20;0.30;;;;;;;6.56;54.89;96064.72;4878064;29;20289;-55
2023/01/16 09:05:56;;;;;;;1.50;0.40;;;;;;;6.58;53.73;96052.38;4883581;29;20232;-53
2023/01/16 09:08:23;;;;;;;1.20;0.40;;;;;;;6.51;53.94;96041.16;4877081;29;20229;-52
2023/01/16 09:13:50;;;;;;;1.90;0.50;;;;;;;6.52;53.99;96047.16;4877533;29;20234;-54
2023/01/16 09:16:17;;;;;;;0.70;0.40;;;;;;;6.52;54.32;96044.56;4877891;29;20794;-53
2023/01/16 09:18:44;;;;;;;0.30;0.27;;;;;;;6.50;53.65;96044.75;4876070;29;20237;-54
2023/01/16 09:21:11;;;;;;;1.43;0.40;;;;;;;6.47;54.44;96042.53;4880475;29;20297;-52
2023/01/16 09:23:37;;;;;;;0.87;0.30;;;;;;;6.46;53.75;96031.38;4875205;29;20247;-51
2023/01/16 09:26:06;;;;;;;1.83;0.50;;;;;;;6.47;53.87;96035.56;4880156;29;20394;-53
2023/01/16 09:28:32;;;;;;;2.53;0.50;;;;;;;6.48;54.22;96036.34;4878409;29;20634;-52
2023/01/16 09:30:59;;;;;;;4.47;2.40;;;;;;;6.45;55.22;96024.59;4879903;29;20233;-52
2023/01/16 09:33:25;;;;;;;1.30;0.70;;;;;;;6.45;54.32;96022.00;4876065;29;20271;-51
2023/01/16 09:35:52;;;;;;;17.97;7.43;;;;;;;6.47;55.16;96039.94;4878943;29;20304;-51
2023/01/16 09:38:20;;;;;;;6.37;1.93;;;;;;;6.47;55.82;96029.56;4877134;29;20233;-52
2023/01/16 09:40:49;;;;;;;1.90;1.17;;;;;;;6.47;57.04;96039.94;4879099;29;20320;-52
2023/01/16 09:43:35;;;;;;;1.13;0.40;;;;;;;6.41;59.40;96046.69;4881771;29;20319;-54
2023/01/16 09:46:06;;;;;;;3.77;2.37;;;;;;;6.49;59.94;96040.53;4877236;29;20232;-53
2023/01/16 09:48:34;;;;;;;1.00;0.60;;;;;;;6.40;63.50;96033.91;4874764;29;20229;-55
2023/01/16 09:51:06;;;;;;;0.57;0.50;;;;;;;6.30;63.46;96023.88;4880179;29;20244;-54
2023/01/16 09:59:24;;;;;;;0.53;0.50;;;;;;;6.33;62.84;95989.81;4887352;29;20248;-52
2023/01/16 10:01:56;;;;;;;2.23;0.37;;;;;;;6.45;62.67;95977.94;4875438;29;20368;-52
2023/01/16 10:04:24;;;;;;;2.10;0.30;;;;;;;6.41;63.27;95983.69;4876886;29;20295;-53
2023/01/16 10:07:04;;;;;;;1.23;0.53;;;;;;;6.47;63.08;95994.09;4880697;29;20233;-51
2023/01/16 10:09:36;;;;;;;1.87;0.20;;;;;;;6.47;61.92;95988.09;4877530;29;20232;-52
2023/01/16 10:12:10;;;;;;;0.43;0.20;;;;;;;6.44;62.79;95965.97;4878569;29;20229;-52
2023/01/16 10:14:51;;;;;;;0.40;0.20;;;;;;;6.53;61.10;95963.22;4879594;29;20718;-52
2023/01/16 10:17:23;;;;;;;0.77;0.13;;;;;;;6.48;60.92;95954.25;4880085;29;20228;-53
2023/01/16 10:20:18;;;;;;;0.77;0.27;;;;;;;6.57;62.39;95985.97;4882644;29;20244;-52
2023/01/16 10:22:58;;;;;;;0.57;0.20;;;;;;;6.60;61.15;95956.28;4892819;29;20630;-53
2023/01/16 10:25:29;;;;;;;0.40;0.30;;;;;;;6.60;61.57;95964.06;4876329;29;20233;-54
2023/01/16 10:28:09;;;;;;;3.53;0.60;;;;;;;6.64;62.90;95966.06;4878414;29;20235;-51
2023/01/16 10:30:44;;;;;;;1.20;0.57;;;;;;;6.76;62.52;95968.13;4875098;29;20237;-50
2023/01/16 10:33:15;;;;;;;1.13;0.27;;;;;;;6.70;62.84;95933.41;4878766;29;20565;-53
2023/01/16 10:35:45;;;;;;;0.67;0.40;;;;;;;6.58;62.64;95953.09;4876788;29;20238;-52
2023/01/16 10:38:29;;;;;;;1.07;0.60;;;;;;;6.62;63.79;95947.31;4880608;29;20232;-51
2023/01/16 10:40:57;;;;;;;0.30;0.30;;;;;;;6.51;63.06;95921.94;4876281;29;20263;-52
2023/01/16 10:49:29;;;;;;;0.50;0.20;;;;;;;6.53;63.62;95940.69;4879806;29;20311;-52
2023/01/16 10:51:58;;;;;;;0.40;0.30;;;;;;;6.52;64.76;95926.13;4876586;29;20277;-52
2023/01/16 10:54:25;;;;;;;0.93;0.47;;;;;;;6.52;64.94;95922.75;4891364;29;20328;-53
2023/01/16 10:56:52;;;;;;;0.50;0.37;;;;;;;6.50;65.67;95936.72;4878655;29;20237;-54
2023/01/16 10:59:19;;;;;;;0.63;0.30;;;;;;;6.57;64.63;95921.19;4876529;29;20235;-53
2023/01/16 11:01:48;;;;;;;0.40;0.20;;;;;;;6.60;64.38;95904.47;4877463;29;20247;-52
2023/01/16 11:04:19;;;;;;;0.30;0.30;;;;;;;6.63;64.93;95886.72;4879089;29;20236;-55
2023/01/16 11:06:46;;;;;;;0.77;0.20;;;;;;;6.77;64.79;95882.41;4875637;29;20232;-54
2023/01/16 11:09:18;;;;;;;1.40;0.57;;;;;;;6.77;65.65;95879.81;4880135;29;20229;-52
2023/01/16 11:20:12;;;;;;;0.40;0.20;;;;;;;6.54;66.23;95854.19;4870269;29;20240;-50
2023/01/16 11:22:40;;;;;;;0.33;0.10;;;;;;;6.44;66.56;95844.19;4868040;29;20809;-52
2023/01/16 11:25:17;;;;;;;1.07;0.30;;;;;;;6.61;66.52;95846.44;4878227;29;20245;-53
2023/01/16 11:27:44;;;;;;;1.23;0.20;;;;;;;6.74;65.82;95850.88;4876225;29;20311;-51
2023/01/16 11:30:18;;;;;;;0.10;0.10;;;;;;;6.70;66.42;95844.47;4876278;29;20280;-50
2023/01/16 11:32:48;;;;;;;0.43;0.10;;;;;;;6.54;67.07;95840.44;4869116;29;20252;-52
2023/01/16 11:35:17;;;;;;;0.33;0.20;;;;;;;6.79;66.09;95836.34;4877099;29;20683;-52
2023/01/16 11:37:45;;;;;;;0.50;0.23;;;;;;;6.63;67.14;95797.81;4871066;29;20238;-51
2023/01/16 11:40:19;;;;;;;1.13;0.30;;;;;;;6.78;66.35;95800.22;4892282;29;20233;-51
2023/01/16 11:46:08;;;;;;;0.20;0.20;;;;;;;6.75;65.65;95837.72;4819399;29;20325;-51
2023/01/16 11:48:38;;;;;;;0.50;0.30;;;;;;;6.73;65.31;95806.00;4872847;29;20233;-51
2023/01/16 11:51:07;;;;;;;1.17;0.20;;;;;;;6.79;65.38;95800.03;4877357;29;20224;-51
2023/01/16 11:53:35;;;;;;;0.67;0.33;;;;;;;6.91;63.67;95781.28;4872882;29;20423;-51
2023/01/16 11:56:29;;;;;;;0.63;0.30;;;;;;;6.92;63.91;95775.09;4875517;29;20568;-52
2023/01/16 11:59:14;;;;;;;0.40;0.40;;;;;;;7.11;64.96;95759.75;4848614;29;20248;-52
2023/01/16 12:05:53;;;;;;;2.47;0.73;;;;;;;7.09;62.89;95750.38;4871275;29;20240;-52
2023/01/16 12:07:45;;;;;;;0.37;0.10;;;;;;;6.98;62.45;95743.19;4873478;29;20239;-51
2023/01/16 12:10:25;;;;;;;0.43;0.40;;;;;;;6.87;63.84;95754.97;4875266;29;20320;-51
2023/01/16 12:16:02;;;;;;;1.20;0.60;;;;;;;6.65;62.92;95721.44;4874074;29;20704;-51
2023/01/16 12:18:37;;;;;;;0.20;0.20;;;;;;;6.69;63.68;95732.22;4874988;29;20791;-52
2023/01/16 12:21:13;;;;;;;0.67;0.30;;;;;;;6.64;62.83;95725.03;4873886;29;20574;-52
2023/01/16 12:24:05;;;;;;;0.30;0.20;;;;;;;6.68;62.58;95724.63;4870877;29;20243;-53
2023/01/16 12:26:37;;;;;;;0.37;0.10;;;;;;;6.70;62.20;95702.72;4873277;29;20236;-53
2023/01/16 12:29:22;;;;;;;0.20;0.10;;;;;;;6.75;62.19;95692.53;4875172;29;20228;-51
2023/01/16 12:32:07;;;;;;;0.20;0.20;;;;;;;6.80;61.21;95702.31;4871759;29;20324;-52
2023/01/16 12:34:52;;;;;;;0.33;0.23;;;;;;;6.87;63.62;95679.78;4870298;29;20229;-53
2023/01/16 12:37:34;;;;;;;0.30;0.20;;;;;;;6.98;61.68;95678.34;4873268;29;20224;-52
2023/01/16 12:40:18;;;;;;;0.67;0.30;;;;;;;7.04;61.19;95663.81;4873027;29;20247;-51
2023/01/16 12:45:49;;;;;;;0.30;0.20;;;;;;;7.19;60.70;95645.41;4868973;29;20246;-51
2023/01/16 12:48:38;;;;;;;0.40;0.10;;;;;;;7.11;59.91;95637.84;4874386;29;20228;-54
2023/01/16 12:51:18;;;;;;;0.70;0.20;;;;;;;6.92;60.64;95627.28;4870496;29;20240;-51
2023/01/16 12:54:15;;;;;;;1.43;0.50;;;;;;;6.94;60.95;95617.50;4870446;29;20247;-52
2023/01/16 12:56:53;;;;;;;0.70;0.70;;;;;;;7.08;60.93;95631.28;4865065;29;20225;-52
2023/01/16 12:59:26;;;;;;;0.40;0.10;;;;;;;6.99;60.84;95622.13;4870942;29;20325;-51
2023/01/16 13:02:00;;;;;;;0.60;0.50;;;;;;;6.98;61.95;95612.75;4871886;29;21556;-52